sensor_id;sensor_type;location;lat;lon;timestamp;P1;durP1;ratioP1;P2;durP2;ratioP2
34902;SDS011;21114;44.840;0.214;2023-11-21T00:01:54;8.73;;;3.13;;
34902;SDS011;21114;44.840;0.214;2023-11-21T00:04:20;16.38;;;7.35;;
34902;SDS011;21114;44.840;0.214;2023-11-21T00:06:46;8.43;;;2.70;;
34902;SDS011;21114;44.840;0.214;2023-11-21T00:09:12;7.43;;;1.95;;
34902;SDS011;21114;44.840;0.214;2023-11-21T00:11:40;7.07;;;2.55;;
34902;SDS011;21114;44.840;0.214;2023-11-21T00:14:06;13.10;;;4.40;;
34902;SDS011;21114;44.840;0.214;2023-11-21T00:16:33;8.85;;;2.35;;
34902;SDS011;21114;44.840;0.214;2023-11-21T00:18:59;6.80;;;2.22;;
34902;SDS011;21114;44.840;0.214;2023-11-21T00:21:25;10.40;;;2.20;;
34902;SDS011;21114;44.840;0.214;2023-11-21T00:23:51;5.53;;;2.13;;
34902;SDS011;21114;44.840;0.214;2023-11-21T00:26:17;7.82;;;3.20;;
34902;SDS011;21114;44.840;0.214;2023-11-21T00:28:43;8.35;;;2.33;;
34902;SDS011;21114;44.840;0.214;2023-11-21T00:31:10;9.60;;;1.85;;
34902;SDS011;21114;44.840;0.214;2023-11-21T00:33:36;6.63;;;2.10;;
34902;SDS011;21114;44.840;0.214;2023-11-21T00:36:02;6.93;;;1.73;;
34902;SDS011;21114;44.840;0.214;2023-11-21T00:38:28;9.55;;;3.03;;
34902;SDS011;21114;44.840;0.214;2023-11-21T00:40:55;7.15;;;1.98;;
34902;SDS011;21114;44.840;0.214;2023-11-21T00:43:22;5.80;;;1.90;;
34902;SDS011;21114;44.840;0.214;2023-11-21T00:45:48;8.15;;;2.38;;
34902;SDS011;21114;44.840;0.214;2023-11-21T00:48:14;6.22;;;1.67;;
34902;SDS011;21114;44.840;0.214;2023-11-21T00:50:40;10.25;;;3.55;;
34902;SDS011;21114;44.840;0.214;2023-11-21T00:53:06;6.03;;;1.50;;
34902;SDS011;21114;44.840;0.214;2023-11-21T00:55:33;6.57;;;1.70;;
34902;SDS011;21114;44.840;0.214;2023-11-21T00:57:59;12.77;;;4.10;;
34902;SDS011;21114;44.840;0.214;2023-11-21T01:00:28;8.52;;;2.60;;
34902;SDS011;21114;44.840;0.214;2023-11-21T01:02:54;10.02;;;3.13;;
34902;SDS011;21114;44.840;0.214;2023-11-21T01:05:21;9.50;;;2.60;;
34902;SDS011;21114;44.840;0.214;2023-11-21T01:07:47;5.38;;;1.98;;
34902;SDS011;21114;44.840;0.214;2023-11-21T01:10:13;11.38;;;3.55;;
34902;SDS011;21114;44.840;0.214;2023-11-21T01:12:39;12.15;;;2.28;;
34902;SDS011;21114;44.840;0.214;2023-11-21T01:15:05;7.47;;;1.83;;
34902;SDS011;21114;44.840;0.214;2023-11-21T01:17:32;6.30;;;1.73;;
34902;SDS011;21114;44.840;0.214;2023-11-21T01:20:02;7.18;;;1.92;;
34902;SDS011;21114;44.840;0.214;2023-11-21T01:22:31;11.68;;;2.47;;
34902;SDS011;21114;44.840;0.214;2023-11-21T01:24:57;6.65;;;2.22;;
34902;SDS011;21114;44.840;0.214;2023-11-21T01:27:23;7.90;;;3.05;;
34902;SDS011;21114;44.840;0.214;2023-11-21T01:29:49;5.97;;;2.42;;
34902;SDS011;21114;44.840;0.214;2023-11-21T01:32:18;15.43;;;4.72;;
34902;SDS011;21114;44.840;0.214;2023-11-21T01:34:44;8.95;;;2.08;;
34902;SDS011;21114;44.840;0.214;2023-11-21T01:37:10;6.28;;;1.80;;
34902;SDS011;21114;44.840;0.214;2023-11-21T01:39:37;6.75;;;2.55;;
34902;SDS011;21114;44.840;0.214;2023-11-21T01:42:04;6.60;;;2.78;;
34902;SDS011;21114;44.840;0.214;2023-11-21T01:44:30;8.30;;;2.58;;
34902;SDS011;21114;44.840;0.214;2023-11-21T01:46:56;12.07;;;3.90;;
34902;SDS011;21114;44.840;0.214;2023-11-21T01:49:22;6.63;;;2.33;;
34902;SDS011;21114;44.840;0.214;2023-11-21T01:51:49;7.63;;;2.78;;
34902;SDS011;21114;44.840;0.214;2023-11-21T01:54:17;7.30;;;2.60;;
34902;SDS011;21114;44.840;0.214;2023-11-21T01:56:45;7.28;;;2.33;;
34902;SDS011;21114;44.840;0.214;2023-11-21T01:59:12;6.78;;;2.05;;
34902;SDS011;21114;44.840;0.214;2023-11-21T02:01:39;8.80;;;3.05;;
34902;SDS011;21114;44.840;0.214;2023-11-21T02:04:06;8.40;;;1.85;;
34902;SDS011;21114;44.840;0.214;2023-11-21T02:06:33;8.43;;;3.17;;
34902;SDS011;21114;44.840;0.214;2023-11-21T02:08:59;12.40;;;3.40;;
34902;SDS011;21114;44.840;0.214;2023-11-21T02:11:25;6.03;;;1.88;;
34902;SDS011;21114;44.840;0.214;2023-11-21T02:13:52;6.00;;;2.03;;
34902;SDS011;21114;44.840;0.214;2023-11-21T02:16:19;11.23;;;3.67;;
34902;SDS011;21114;44.840;0.214;2023-11-21T02:18:46;8.15;;;4.07;;
34902;SDS011;21114;44.840;0.214;2023-11-21T02:21:13;7.10;;;2.25;;
34902;SDS011;21114;44.840;0.214;2023-11-21T02:23:39;5.40;;;3.35;;
34902;SDS011;21114;44.840;0.214;2023-11-21T02:26:09;10.30;;;2.40;;
34902;SDS011;21114;44.840;0.214;2023-11-21T02:28:36;6.60;;;1.55;;
34902;SDS011;21114;44.840;0.214;2023-11-21T02:31:03;5.22;;;1.85;;
34902;SDS011;21114;44.840;0.214;2023-11-21T02:33:30;7.40;;;2.45;;
34902;SDS011;21114;44.840;0.214;2023-11-21T02:35:59;6.47;;;1.83;;
34902;SDS011;21114;44.840;0.214;2023-11-21T02:38:25;5.20;;;2.13;;
34902;SDS011;21114;44.840;0.214;2023-11-21T02:40:51;9.52;;;3.92;;
34902;SDS011;21114;44.840;0.214;2023-11-21T02:43:17;5.70;;;2.38;;
34902;SDS011;21114;44.840;0.214;2023-11-21T02:45:43;6.88;;;2.47;;
34902;SDS011;21114;44.840;0.214;2023-11-21T02:48:09;9.40;;;2.08;;
34902;SDS011;21114;44.840;0.214;2023-11-21T02:50:35;11.10;;;1.77;;
34902;SDS011;21114;44.840;0.214;2023-11-21T02:53:02;10.25;;;3.97;;
34902;SDS011;21114;44.840;0.214;2023-11-21T02:55:30;9.20;;;1.95;;
34902;SDS011;21114;44.840;0.214;2023-11-21T02:57:59;7.88;;;1.60;;
34902;SDS011;21114;44.840;0.214;2023-11-21T03:00:25;6.97;;;2.08;;
34902;SDS011;21114;44.840;0.214;2023-11-21T03:02:52;10.55;;;2.65;;
34902;SDS011;21114;44.840;0.214;2023-11-21T03:05:18;9.40;;;1.65;;
34902;SDS011;21114;44.840;0.214;2023-11-21T03:07:45;17.50;;;3.13;;
34902;SDS011;21114;44.840;0.214;2023-11-21T03:10:11;7.32;;;1.67;;
34902;SDS011;21114;44.840;0.214;2023-11-21T03:12:37;9.07;;;3.67;;
34902;SDS011;21114;44.840;0.214;2023-11-21T03:15:04;9.50;;;3.30;;
34902;SDS011;21114;44.840;0.214;2023-11-21T03:17:31;7.70;;;2.10;;
34902;SDS011;21114;44.840;0.214;2023-11-21T03:19:58;6.88;;;1.60;;
34902;SDS011;21114;44.840;0.214;2023-11-21T03:22:24;6.25;;;1.80;;
34902;SDS011;21114;44.840;0.214;2023-11-21T03:24:51;8.05;;;2.95;;
34902;SDS011;21114;44.840;0.214;2023-11-21T03:27:17;9.77;;;2.00;;
34902;SDS011;21114;44.840;0.214;2023-11-21T03:29:44;8.93;;;2.22;;
34902;SDS011;21114;44.840;0.214;2023-11-21T03:32:11;7.43;;;3.03;;
34902;SDS011;21114;44.840;0.214;2023-11-21T03:34:48;6.80;;;1.58;;
34902;SDS011;21114;44.840;0.214;2023-11-21T03:37:18;8.02;;;2.28;;
34902;SDS011;21114;44.840;0.214;2023-11-21T03:39:45;9.60;;;3.40;;
34902;SDS011;21114;44.840;0.214;2023-11-21T03:42:12;5.78;;;2.78;;
34902;SDS011;21114;44.840;0.214;2023-11-21T03:44:38;5.82;;;2.20;;
34902;SDS011;21114;44.840;0.214;2023-11-21T03:47:04;12.52;;;4.13;;
34902;SDS011;21114;44.840;0.214;2023-11-21T03:49:30;8.80;;;2.65;;
34902;SDS011;21114;44.840;0.214;2023-11-21T03:51:56;5.57;;;1.42;;
34902;SDS011;21114;44.840;0.214;2023-11-21T03:54:22;10.98;;;3.08;;
34902;SDS011;21114;44.840;0.214;2023-11-21T03:56:48;9.57;;;2.30;;
34902;SDS011;21114;44.840;0.214;2023-11-21T03:59:14;7.00;;;1.77;;
34902;SDS011;21114;44.840;0.214;2023-11-21T04:01:40;9.10;;;2.85;;
34902;SDS011;21114;44.840;0.214;2023-11-21T04:04:06;14.20;;;3.97;;
34902;SDS011;21114;44.840;0.214;2023-11-21T04:06:33;16.02;;;4.00;;
34902;SDS011;21114;44.840;0.214;2023-11-21T04:08:59;16.17;;;3.15;;
34902;SDS011;21114;44.840;0.214;2023-11-21T04:11:25;8.05;;;2.97;;
34902;SDS011;21114;44.840;0.214;2023-11-21T04:13:51;8.55;;;2.72;;
34902;SDS011;21114;44.840;0.214;2023-11-21T04:16:17;8.60;;;2.63;;
34902;SDS011;21114;44.840;0.214;2023-11-21T04:18:43;8.27;;;3.17;;
34902;SDS011;21114;44.840;0.214;2023-11-21T04:21:09;8.02;;;4.18;;
34902;SDS011;21114;44.840;0.214;2023-11-21T04:23:35;8.18;;;3.47;;
34902;SDS011;21114;44.840;0.214;2023-11-21T04:26:01;12.63;;;2.58;;
34902;SDS011;21114;44.840;0.214;2023-11-21T04:28:27;8.38;;;2.80;;
34902;SDS011;21114;44.840;0.214;2023-11-21T04:30:54;9.98;;;2.15;;
34902;SDS011;21114;44.840;0.214;2023-11-21T04:33:20;9.90;;;3.20;;
34902;SDS011;21114;44.840;0.214;2023-11-21T04:35:47;6.20;;;3.17;;
34902;SDS011;21114;44.840;0.214;2023-11-21T04:38:13;10.55;;;2.60;;
34902;SDS011;21114;44.840;0.214;2023-11-21T04:40:39;5.45;;;2.25;;
34902;SDS011;21114;44.840;0.214;2023-11-21T04:43:05;12.35;;;4.03;;
34902;SDS011;21114;44.840;0.214;2023-11-21T04:45:32;39.45;;;4.35;;
34902;SDS011;21114;44.840;0.214;2023-11-21T04:47:58;9.85;;;4.97;;
34902;SDS011;21114;44.840;0.214;2023-11-21T04:50:24;10.25;;;3.13;;
34902;SDS011;21114;44.840;0.214;2023-11-21T04:52:52;11.32;;;3.38;;
34902;SDS011;21114;44.840;0.214;2023-11-21T04:55:18;9.65;;;3.50;;
34902;SDS011;21114;44.840;0.214;2023-11-21T04:57:44;9.57;;;3.60;;
34902;SDS011;21114;44.840;0.214;2023-11-21T05:00:12;13.15;;;4.18;;
34902;SDS011;21114;44.840;0.214;2023-11-21T05:02:39;9.27;;;4.38;;
34902;SDS011;21114;44.840;0.214;2023-11-21T05:05:06;8.38;;;3.83;;
34902;SDS011;21114;44.840;0.214;2023-11-21T05:07:35;13.95;;;5.47;;
34902;SDS011;21114;44.840;0.214;2023-11-21T05:10:02;9.15;;;4.68;;
34902;SDS011;21114;44.840;0.214;2023-11-21T05:12:31;10.38;;;4.82;;
34902;SDS011;21114;44.840;0.214;2023-11-21T05:15:02;13.82;;;4.82;;
34902;SDS011;21114;44.840;0.214;2023-11-21T05:17:33;11.43;;;4.97;;
34902;SDS011;21114;44.840;0.214;2023-11-21T05:20:00;11.90;;;5.05;;
34902;SDS011;21114;44.840;0.214;2023-11-21T05:22:29;12.45;;;5.38;;
34902;SDS011;21114;44.840;0.214;2023-11-21T05:24:55;12.07;;;5.18;;
34902;SDS011;21114;44.840;0.214;2023-11-21T05:27:21;14.07;;;6.88;;
34902;SDS011;21114;44.840;0.214;2023-11-21T05:29:47;14.65;;;5.80;;
34902;SDS011;21114;44.840;0.214;2023-11-21T05:32:13;9.40;;;4.80;;
34902;SDS011;21114;44.840;0.214;2023-11-21T05:34:39;10.02;;;4.30;;
34902;SDS011;21114;44.840;0.214;2023-11-21T05:37:06;8.93;;;5.07;;
34902;SDS011;21114;44.840;0.214;2023-11-21T05:39:32;11.23;;;5.28;;
34902;SDS011;21114;44.840;0.214;2023-11-21T05:41:59;16.60;;;5.57;;
34902;SDS011;21114;44.840;0.214;2023-11-21T05:44:25;13.07;;;4.88;;
34902;SDS011;21114;44.840;0.214;2023-11-21T05:46:51;11.93;;;4.57;;
34902;SDS011;21114;44.840;0.214;2023-11-21T05:49:17;10.15;;;4.25;;
34902;SDS011;21114;44.840;0.214;2023-11-21T05:51:46;12.70;;;5.25;;
34902;SDS011;21114;44.840;0.214;2023-11-21T05:54:13;10.07;;;5.15;;
34902;SDS011;21114;44.840;0.214;2023-11-21T05:56:39;16.65;;;6.93;;
34902;SDS011;21114;44.840;0.214;2023-11-21T05:59:05;11.95;;;6.53;;
34902;SDS011;21114;44.840;0.214;2023-11-21T06:01:31;13.95;;;5.72;;
34902;SDS011;21114;44.840;0.214;2023-11-21T06:03:57;10.30;;;5.45;;
34902;SDS011;21114;44.840;0.214;2023-11-21T06:06:24;12.65;;;4.78;;
34902;SDS011;21114;44.840;0.214;2023-11-21T06:08:50;19.02;;;6.82;;
34902;SDS011;21114;44.840;0.214;2023-11-21T06:11:16;10.68;;;5.40;;
34902;SDS011;21114;44.840;0.214;2023-11-21T06:13:43;12.15;;;5.28;;
34902;SDS011;21114;44.840;0.214;2023-11-21T06:16:09;11.77;;;4.43;;
34902;SDS011;21114;44.840;0.214;2023-11-21T06:18:35;12.13;;;4.43;;
34902;SDS011;21114;44.840;0.214;2023-11-21T06:21:01;10.20;;;4.00;;
34902;SDS011;21114;44.840;0.214;2023-11-21T06:23:28;13.48;;;5.88;;
34902;SDS011;21114;44.840;0.214;2023-11-21T06:25:55;15.55;;;6.75;;
34902;SDS011;21114;44.840;0.214;2023-11-21T06:28:22;12.90;;;4.72;;
34902;SDS011;21114;44.840;0.214;2023-11-21T06:30:48;13.20;;;5.05;;
34902;SDS011;21114;44.840;0.214;2023-11-21T06:33:15;9.27;;;4.40;;
34902;SDS011;21114;44.840;0.214;2023-11-21T06:35:41;8.73;;;4.43;;
34902;SDS011;21114;44.840;0.214;2023-11-21T06:38:07;6.90;;;4.32;;
34902;SDS011;21114;44.840;0.214;2023-11-21T06:40:34;8.20;;;4.00;;
34902;SDS011;21114;44.840;0.214;2023-11-21T06:43:00;10.52;;;4.45;;
34902;SDS011;21114;44.840;0.214;2023-11-21T06:45:26;5.45;;;3.25;;
34902;SDS011;21114;44.840;0.214;2023-11-21T06:47:52;7.10;;;4.47;;
34902;SDS011;21114;44.840;0.214;2023-11-21T06:50:18;9.90;;;3.08;;
34902;SDS011;21114;44.840;0.214;2023-11-21T06:52:45;7.38;;;2.65;;
34902;SDS011;21114;44.840;0.214;2023-11-21T06:55:11;9.57;;;3.35;;
34902;SDS011;21114;44.840;0.214;2023-11-21T06:57:37;5.97;;;2.15;;
34902;SDS011;21114;44.840;0.214;2023-11-21T07:00:03;6.60;;;3.13;;
34902;SDS011;21114;44.840;0.214;2023-11-21T07:02:30;5.43;;;3.50;;
34902;SDS011;21114;44.840;0.214;2023-11-21T07:04:56;10.85;;;3.03;;
34902;SDS011;21114;44.840;0.214;2023-11-21T07:07:22;5.60;;;3.00;;
34902;SDS011;21114;44.840;0.214;2023-11-21T07:09:48;6.30;;;2.25;;
34902;SDS011;21114;44.840;0.214;2023-11-21T07:12:14;5.00;;;2.05;;
34902;SDS011;21114;44.840;0.214;2023-11-21T07:14:40;4.70;;;2.28;;
34902;SDS011;21114;44.840;0.214;2023-11-21T07:17:09;5.32;;;2.53;;
34902;SDS011;21114;44.840;0.214;2023-11-21T07:19:36;7.13;;;2.13;;
34902;SDS011;21114;44.840;0.214;2023-11-21T07:22:03;5.55;;;2.40;;
34902;SDS011;21114;44.840;0.214;2023-11-21T07:24:30;4.60;;;2.30;;
34902;SDS011;21114;44.840;0.214;2023-11-21T07:26:56;3.35;;;2.33;;
34902;SDS011;21114;44.840;0.214;2023-11-21T07:29:24;7.57;;;3.28;;
34902;SDS011;21114;44.840;0.214;2023-11-21T07:31:51;3.80;;;1.85;;
34902;SDS011;21114;44.840;0.214;2023-11-21T07:34:18;4.32;;;2.55;;
34902;SDS011;21114;44.840;0.214;2023-11-21T07:36:44;7.97;;;3.08;;
34902;SDS011;21114;44.840;0.214;2023-11-21T07:39:10;3.60;;;2.97;;
34902;SDS011;21114;44.840;0.214;2023-11-21T07:41:36;3.45;;;2.70;;
34902;SDS011;21114;44.840;0.214;2023-11-21T07:44:04;6.00;;;2.35;;
34902;SDS011;21114;44.840;0.214;2023-11-21T07:46:31;6.32;;;2.78;;
34902;SDS011;21114;44.840;0.214;2023-11-21T07:48:57;6.15;;;2.95;;
34902;SDS011;21114;44.840;0.214;2023-11-21T07:51:24;5.97;;;2.60;;
34902;SDS011;21114;44.840;0.214;2023-11-21T07:53:50;4.35;;;3.65;;
34902;SDS011;21114;44.840;0.214;2023-11-21T07:56:17;5.25;;;3.00;;
34902;SDS011;21114;44.840;0.214;2023-11-21T07:58:43;6.72;;;3.47;;
34902;SDS011;21114;44.840;0.214;2023-11-21T08:01:09;5.80;;;2.75;;
34902;SDS011;21114;44.840;0.214;2023-11-21T08:03:36;4.15;;;2.95;;
34902;SDS011;21114;44.840;0.214;2023-11-21T08:06:02;5.25;;;3.47;;
34902;SDS011;21114;44.840;0.214;2023-11-21T08:08:30;4.88;;;3.70;;
34902;SDS011;21114;44.840;0.214;2023-11-21T08:10:57;5.80;;;3.75;;
34902;SDS011;21114;44.840;0.214;2023-11-21T08:13:23;5.03;;;3.47;;
34902;SDS011;21114;44.840;0.214;2023-11-21T08:15:50;7.43;;;3.47;;
34902;SDS011;21114;44.840;0.214;2023-11-21T08:18:16;8.95;;;3.80;;
34902;SDS011;21114;44.840;0.214;2023-11-21T08:20:42;7.75;;;4.25;;
34902;SDS011;21114;44.840;0.214;2023-11-21T08:23:08;5.63;;;3.33;;
34902;SDS011;21114;44.840;0.214;2023-11-21T08:25:34;5.78;;;3.40;;
34902;SDS011;21114;44.840;0.214;2023-11-21T08:28:00;8.82;;;4.18;;
34902;SDS011;21114;44.840;0.214;2023-11-21T08:30:27;6.90;;;4.18;;
34902;SDS011;21114;44.840;0.214;2023-11-21T08:32:55;7.80;;;4.55;;
34902;SDS011;21114;44.840;0.214;2023-11-21T08:35:23;6.85;;;3.03;;
34902;SDS011;21114;44.840;0.214;2023-11-21T08:37:52;3.25;;;2.83;;
34902;SDS011;21114;44.840;0.214;2023-11-21T08:40:18;6.68;;;3.10;;
34902;SDS011;21114;44.840;0.214;2023-11-21T08:42:46;6.82;;;3.50;;
34902;SDS011;21114;44.840;0.214;2023-11-21T08:45:12;13.35;;;5.30;;
34902;SDS011;21114;44.840;0.214;2023-11-21T08:47:38;6.30;;;3.70;;
34902;SDS011;21114;44.840;0.214;2023-11-21T08:50:05;5.05;;;3.00;;
34902;SDS011;21114;44.840;0.214;2023-11-21T08:52:32;6.00;;;3.80;;
34902;SDS011;21114;44.840;0.214;2023-11-21T08:54:59;4.18;;;3.00;;
34902;SDS011;21114;44.840;0.214;2023-11-21T08:57:28;6.57;;;4.05;;
34902;SDS011;21114;44.840;0.214;2023-11-21T08:59:54;5.82;;;3.15;;
34902;SDS011;21114;44.840;0.214;2023-11-21T09:02:25;6.35;;;3.35;;
34902;SDS011;21114;44.840;0.214;2023-11-21T09:04:51;4.70;;;2.55;;
34902;SDS011;21114;44.840;0.214;2023-11-21T09:07:21;3.78;;;2.65;;
34902;SDS011;21114;44.840;0.214;2023-11-21T09:09:47;6.82;;;3.67;;
34902;SDS011;21114;44.840;0.214;2023-11-21T09:12:14;6.22;;;3.58;;
34902;SDS011;21114;44.840;0.214;2023-11-21T09:14:40;3.53;;;1.83;;
34902;SDS011;21114;44.840;0.214;2023-11-21T09:17:06;9.40;;;3.72;;
34902;SDS011;21114;44.840;0.214;2023-11-21T09:19:36;2.83;;;2.28;;
34902;SDS011;21114;44.840;0.214;2023-11-21T09:22:02;5.50;;;2.75;;
34902;SDS011;21114;44.840;0.214;2023-11-21T09:24:30;4.68;;;2.25;;
34902;SDS011;21114;44.840;0.214;2023-11-21T09:26:56;4.45;;;2.00;;
34902;SDS011;21114;44.840;0.214;2023-11-21T09:29:22;4.18;;;1.90;;
34902;SDS011;21114;44.840;0.214;2023-11-21T09:31:48;10.93;;;3.97;;
34902;SDS011;21114;44.840;0.214;2023-11-21T09:34:16;5.55;;;3.03;;
34902;SDS011;21114;44.840;0.214;2023-11-21T09:36:44;3.22;;;1.75;;
34902;SDS011;21114;44.840;0.214;2023-11-21T09:39:11;3.35;;;2.20;;
34902;SDS011;21114;44.840;0.214;2023-11-21T09:44:16;5.68;;;1.80;;
34902;SDS011;21114;44.840;0.214;2023-11-21T09:46:43;4.05;;;1.90;;
34902;SDS011;21114;44.840;0.214;2023-11-21T09:49:11;4.93;;;1.88;;
34902;SDS011;21114;44.840;0.214;2023-11-21T09:51:42;5.72;;;2.38;;
34902;SDS011;21114;44.840;0.214;2023-11-21T09:54:10;3.78;;;1.90;;
34902;SDS011;21114;44.840;0.214;2023-11-21T09:56:39;4.75;;;1.90;;
34902;SDS011;21114;44.840;0.214;2023-11-21T09:59:05;3.40;;;2.33;;
34902;SDS011;21114;44.840;0.214;2023-11-21T10:01:36;2.97;;;1.63;;
34902;SDS011;21114;44.840;0.214;2023-11-21T10:04:05;2.58;;;1.10;;
34902;SDS011;21114;44.840;0.214;2023-11-21T10:06:37;4.55;;;1.77;;
34902;SDS011;21114;44.840;0.214;2023-11-21T10:09:03;3.72;;;1.55;;
34902;SDS011;21114;44.840;0.214;2023-11-21T10:11:36;5.20;;;2.35;;
34902;SDS011;21114;44.840;0.214;2023-11-21T10:14:03;4.72;;;2.40;;
34902;SDS011;21114;44.840;0.214;2023-11-21T10:16:30;4.40;;;1.15;;
34902;SDS011;21114;44.840;0.214;2023-11-21T10:18:57;4.30;;;1.42;;
34902;SDS011;21114;44.840;0.214;2023-11-21T10:21:24;3.25;;;1.33;;
34902;SDS011;21114;44.840;0.214;2023-11-21T10:23:51;1.70;;;0.95;;
34902;SDS011;21114;44.840;0.214;2023-11-21T10:26:18;3.33;;;2.15;;
34902;SDS011;21114;44.840;0.214;2023-11-21T10:28:58;6.22;;;1.30;;
34902;SDS011;21114;44.840;0.214;2023-11-21T10:31:27;2.72;;;0.95;;
34902;SDS011;21114;44.840;0.214;2023-11-21T10:33:55;3.65;;;1.10;;
34902;SDS011;21114;44.840;0.214;2023-11-21T10:36:25;3.95;;;1.30;;
34902;SDS011;21114;44.840;0.214;2023-11-21T10:38:52;4.85;;;1.13;;
34902;SDS011;21114;44.840;0.214;2023-11-21T10:41:18;6.38;;;1.42;;
34902;SDS011;21114;44.840;0.214;2023-11-21T10:43:45;5.72;;;1.30;;
34902;SDS011;21114;44.840;0.214;2023-11-21T10:46:11;1.50;;;0.70;;
34902;SDS011;21114;44.840;0.214;2023-11-21T10:48:37;3.55;;;1.10;;
34902;SDS011;21114;44.840;0.214;2023-11-21T10:51:06;17.13;;;3.65;;
34902;SDS011;21114;44.840;0.214;2023-11-21T10:53:32;2.38;;;1.05;;
34902;SDS011;21114;44.840;0.214;2023-11-21T10:56:05;5.68;;;2.55;;
34902;SDS011;21114;44.840;0.214;2023-11-21T10:58:42;2.70;;;1.00;;
34902;SDS011;21114;44.840;0.214;2023-11-21T11:01:08;2.38;;;1.15;;
34902;SDS011;21114;44.840;0.214;2023-11-21T11:03:39;3.95;;;1.23;;
34902;SDS011;21114;44.840;0.214;2023-11-21T11:06:05;2.50;;;0.95;;
34902;SDS011;21114;44.840;0.214;2023-11-21T11:08:39;6.32;;;1.67;;
34902;SDS011;21114;44.840;0.214;2023-11-21T11:11:06;3.38;;;1.38;;
34902;SDS011;21114;44.840;0.214;2023-11-21T11:13:32;1.30;;;0.75;;
34902;SDS011;21114;44.840;0.214;2023-11-21T11:15:58;2.28;;;1.25;;
34902;SDS011;21114;44.840;0.214;2023-11-21T11:18:29;5.75;;;1.90;;
34902;SDS011;21114;44.840;0.214;2023-11-21T11:20:57;4.55;;;1.95;;
34902;SDS011;21114;44.840;0.214;2023-11-21T11:23:33;3.42;;;2.58;;
34902;SDS011;21114;44.840;0.214;2023-11-21T11:26:17;3.38;;;1.17;;
34902;SDS011;21114;44.840;0.214;2023-11-21T11:28:51;3.40;;;0.90;;
34902;SDS011;21114;44.840;0.214;2023-11-21T11:34:11;3.10;;;1.00;;
34902;SDS011;21114;44.840;0.214;2023-11-21T11:36:49;2.25;;;1.30;;
34902;SDS011;21114;44.840;0.214;2023-11-21T11:39:27;0.90;;;0.50;;
34902;SDS011;21114;44.840;0.214;2023-11-21T11:41:55;1.65;;;0.60;;
34902;SDS011;21114;44.840;0.214;2023-11-21T11:47:16;2.35;;;0.70;;
34902;SDS011;21114;44.840;0.214;2023-11-21T11:49:59;3.28;;;0.80;;
34902;SDS011;21114;44.840;0.214;2023-11-21T11:54:58;1.77;;;1.27;;
34902;SDS011;21114;44.840;0.214;2023-11-21T11:57:25;2.63;;;1.20;;
34902;SDS011;21114;44.840;0.214;2023-11-21T12:02:37;3.05;;;0.90;;
34902;SDS011;21114;44.840;0.214;2023-11-21T12:05:21;2.30;;;1.15;;
34902;SDS011;21114;44.840;0.214;2023-11-21T12:07:51;1.48;;;1.30;;
34902;SDS011;21114;44.840;0.214;2023-11-21T12:10:24;1.98;;;1.23;;
34902;SDS011;21114;44.840;0.214;2023-11-21T12:12:51;1.75;;;1.60;;
34902;SDS011;21114;44.840;0.214;2023-11-21T12:15:17;2.22;;;0.80;;
34902;SDS011;21114;44.840;0.214;2023-11-21T12:17:44;3.72;;;1.75;;
34902;SDS011;21114;44.840;0.214;2023-11-21T12:20:11;3.88;;;1.02;;
34902;SDS011;21114;44.840;0.214;2023-11-21T12:22:42;5.15;;;0.90;;
34902;SDS011;21114;44.840;0.214;2023-11-21T12:25:08;2.25;;;1.58;;
34902;SDS011;21114;44.840;0.214;2023-11-21T12:27:35;2.25;;;0.68;;
34902;SDS011;21114;44.840;0.214;2023-11-21T12:30:01;5.30;;;0.93;;
34902;SDS011;21114;44.840;0.214;2023-11-21T12:32:27;0.82;;;0.52;;
34902;SDS011;21114;44.840;0.214;2023-11-21T12:34:53;3.47;;;0.68;;
34902;SDS011;21114;44.840;0.214;2023-11-21T12:37:19;2.33;;;0.88;;
34902;SDS011;21114;44.840;0.214;2023-11-21T12:39:45;1.88;;;0.80;;
34902;SDS011;21114;44.840;0.214;2023-11-21T12:42:11;1.67;;;0.73;;
34902;SDS011;21114;44.840;0.214;2023-11-21T12:44:38;1.63;;;0.63;;
34902;SDS011;21114;44.840;0.214;2023-11-21T12:47:06;1.90;;;0.75;;
34902;SDS011;21114;44.840;0.214;2023-11-21T12:49:34;2.28;;;0.63;;
34902;SDS011;21114;44.840;0.214;2023-11-21T12:52:00;8.88;;;3.53;;
34902;SDS011;21114;44.840;0.214;2023-11-21T12:54:28;0.90;;;0.63;;
34902;SDS011;21114;44.840;0.214;2023-11-21T12:56:58;3.05;;;0.60;;
34902;SDS011;21114;44.840;0.214;2023-11-21T12:59:25;3.03;;;0.75;;
34902;SDS011;21114;44.840;0.214;2023-11-21T13:01:51;4.20;;;0.88;;
34902;SDS011;21114;44.840;0.214;2023-11-21T13:04:29;1.75;;;0.60;;
34902;SDS011;21114;44.840;0.214;2023-11-21T13:06:55;2.55;;;0.60;;
34902;SDS011;21114;44.840;0.214;2023-11-21T13:09:31;1.00;;;0.40;;
34902;SDS011;21114;44.840;0.214;2023-11-21T13:12:01;3.90;;;1.08;;
34902;SDS011;21114;44.840;0.214;2023-11-21T13:14:31;0.70;;;0.40;;
34902;SDS011;21114;44.840;0.214;2023-11-21T13:16:57;1.42;;;0.90;;
34902;SDS011;21114;44.840;0.214;2023-11-21T13:19:23;1.83;;;0.60;;
34902;SDS011;21114;44.840;0.214;2023-11-21T13:21:49;2.97;;;0.80;;
34902;SDS011;21114;44.840;0.214;2023-11-21T13:24:15;3.70;;;0.70;;
34902;SDS011;21114;44.840;0.214;2023-11-21T13:26:43;0.50;;;0.30;;
34902;SDS011;21114;44.840;0.214;2023-11-21T13:29:10;1.45;;;0.57;;
34902;SDS011;21114;44.840;0.214;2023-11-21T13:31:38;2.13;;;0.40;;
34902;SDS011;21114;44.840;0.214;2023-11-21T13:34:04;1.38;;;0.30;;
34902;SDS011;21114;44.840;0.214;2023-11-21T13:36:30;4.63;;;1.70;;
34902;SDS011;21114;44.840;0.214;2023-11-21T13:39:00;1.45;;;0.40;;
34902;SDS011;21114;44.840;0.214;2023-11-21T13:41:32;2.40;;;0.73;;
34902;SDS011;21114;44.840;0.214;2023-11-21T13:43:59;0.75;;;0.35;;
34902;SDS011;21114;44.840;0.214;2023-11-21T13:46:43;0.98;;;0.60;;
34902;SDS011;21114;44.840;0.214;2023-11-21T13:49:10;20.40;;;2.40;;
34902;SDS011;21114;44.840;0.214;2023-11-21T13:51:37;1.65;;;0.63;;
34902;SDS011;21114;44.840;0.214;2023-11-21T13:54:09;1.73;;;0.80;;
34902;SDS011;21114;44.840;0.214;2023-11-21T13:56:36;1.95;;;0.80;;
34902;SDS011;21114;44.840;0.214;2023-11-21T13:59:03;2.97;;;1.27;;
34902;SDS011;21114;44.840;0.214;2023-11-21T14:01:41;2.15;;;0.63;;
34902;SDS011;21114;44.840;0.214;2023-11-21T14:04:19;4.03;;;0.88;;
34902;SDS011;21114;44.840;0.214;2023-11-21T14:06:59;1.45;;;0.65;;
34902;SDS011;21114;44.840;0.214;2023-11-21T14:09:39;2.05;;;0.55;;
34902;SDS011;21114;44.840;0.214;2023-11-21T14:12:09;1.42;;;0.40;;
34902;SDS011;21114;44.840;0.214;2023-11-21T14:14:37;2.88;;;0.77;;
34902;SDS011;21114;44.840;0.214;2023-11-21T14:17:04;2.80;;;0.68;;
34902;SDS011;21114;44.840;0.214;2023-11-21T14:19:32;0.95;;;0.32;;
34902;SDS011;21114;44.840;0.214;2023-11-21T14:21:59;1.10;;;0.50;;
34902;SDS011;21114;44.840;0.214;2023-11-21T14:24:26;1.23;;;0.85;;
34902;SDS011;21114;44.840;0.214;2023-11-21T14:26:54;11.10;;;1.17;;
34902;SDS011;21114;44.840;0.214;2023-11-21T14:29:20;1.45;;;0.50;;
34902;SDS011;21114;44.840;0.214;2023-11-21T14:31:48;2.90;;;0.70;;
34902;SDS011;21114;44.840;0.214;2023-11-21T14:34:16;0.85;;;0.40;;
34902;SDS011;21114;44.840;0.214;2023-11-21T14:36:42;2.45;;;0.60;;
34902;SDS011;21114;44.840;0.214;2023-11-21T14:39:09;3.28;;;1.10;;
34902;SDS011;21114;44.840;0.214;2023-11-21T14:41:47;1.50;;;0.77;;
34902;SDS011;21114;44.840;0.214;2023-11-21T14:44:13;0.77;;;0.20;;
34902;SDS011;21114;44.840;0.214;2023-11-21T14:46:40;0.73;;;0.40;;
34902;SDS011;21114;44.840;0.214;2023-11-21T14:49:11;3.40;;;1.85;;
34902;SDS011;21114;44.840;0.214;2023-11-21T14:51:47;1.23;;;0.32;;
34902;SDS011;21114;44.840;0.214;2023-11-21T14:54:28;2.30;;;0.47;;
34902;SDS011;21114;44.840;0.214;2023-11-21T14:57:17;2.95;;;0.95;;
34902;SDS011;21114;44.840;0.214;2023-11-21T14:59:48;1.25;;;0.38;;
34902;SDS011;21114;44.840;0.214;2023-11-21T15:02:20;5.63;;;2.00;;